Time;durP1;ratioP1;P1;durP2;ratioP2;P2;SDS_P1;SDS_P2;PMS_P1;PMS_P2;Temp;Humidity;BMP_temperature;BMP_pressure;BME280_temperature;BME280_humidity;BME280_pressure;Samples;Min_cycle;Max_cycle;Signal;HPM_P1;HPM_P2
2021/10/23 00:02:25;;;;;;;46.77;30.70;;;;;;;19.33;79.30;100161.52;1773853;80;21288;-69
2021/10/23 00:04:52;;;;;;;40.57;27.37;;;;;;;19.41;76.60;100162.42;1772909;80;22798;-68
2021/10/23 00:07:18;;;;;;;35.47;27.13;;;;;;;19.40;75.46;100167.44;1764219;79;21241;-69
2021/10/23 00:09:45;;;;;;;36.97;27.63;;;;;;;19.32;76.03;100172.61;1776438;80;21843;-69
2021/10/23 00:12:13;;;;;;;41.37;27.83;;;;;;;19.39;75.59;100169.78;1776199;80;21289;-68
2021/10/23 00:14:39;;;;;;;39.13;27.17;;;;;;;19.44;75.90;100165.38;1775593;80;21183;-67
2021/10/23 00:17:07;;;;;;;35.30;25.23;;;;;;;19.63;75.23;100159.31;1775884;80;21193;-67
2021/10/23 00:19:33;;;;;;;35.63;25.97;;;;;;;19.45;77.97;100163.53;1774083;79;21236;-68
2021/10/23 00:22:00;;;;;;;41.97;27.73;;;;;;;19.60;77.89;100161.09;1779311;80;21344;-69
2021/10/23 00:24:27;;;;;;;38.30;27.47;;;;;;;19.66;78.23;100152.72;1764186;80;21231;-69
2021/10/23 00:26:53;;;;;;;41.27;28.50;;;;;;;19.72;77.80;100147.78;1775780;80;21129;-69
2021/10/23 00:29:20;;;;;;;41.13;27.73;;;;;;;19.74;77.46;100148.87;1775663;80;21253;-68
2021/10/23 00:31:46;;;;;;;37.40;26.73;;;;;;;19.77;77.25;100153.64;1774320;80;21355;-69
2021/10/23 00:34:13;;;;;;;39.10;27.90;;;;;;;19.85;75.99;100146.59;1775624;80;21360;-69
2021/10/23 00:36:42;;;;;;;39.90;28.60;;;;;;;19.73;76.09;100148.57;1776179;80;21397;-69
2021/10/23 00:39:08;;;;;;;39.53;27.37;;;;;;;19.76;75.70;100152.05;1775348;80;21335;-68
2021/10/23 00:41:35;;;;;;;37.80;25.37;;;;;;;19.94;73.47;100155.72;1764804;80;21165;-69
2021/10/23 00:44:02;;;;;;;40.70;26.90;;;;;;;19.95;73.36;100145.93;1776036;80;21300;-68
2021/10/23 00:46:30;;;;;;;37.30;25.37;;;;;;;19.95;72.59;100155.19;1775835;79;21333;-69
2021/10/23 00:48:57;;;;;;;41.00;26.03;;;;;;;19.30;79.56;100162.00;1769817;80;21279;-68
2021/10/23 00:51:24;;;;;;;41.07;26.57;;;;;;;19.01;83.45;100163.41;1770692;79;21143;-69
2021/10/23 00:53:51;;;;;;;38.40;25.20;;;;;;;19.08;83.69;100165.38;1776583;80;21490;-69
2021/10/23 00:56:17;;;;;;;36.37;26.47;;;;;;;18.86;85.27;100163.17;1767100;80;21383;-68
2021/10/23 00:58:47;;;;;;;37.07;25.33;;;;;;;19.08;82.50;100165.89;1775591;80;21290;-68
2021/10/23 01:01:15;;;;;;;42.15;27.65;;;;;;;18.95;83.50;100164.39;1776177;80;21291;-69
2021/10/23 01:03:42;;;;;;;41.30;27.23;;;;;;;19.14;80.57;100164.41;1772193;79;21035;-68
2021/10/23 01:06:09;;;;;;;38.30;25.90;;;;;;;19.20;77.40;100160.79;1762770;81;22153;-68
2021/10/23 01:08:35;;;;;;;41.77;26.37;;;;;;;19.08;78.17;100158.77;1762425;81;21381;-68
2021/10/23 01:11:02;;;;;;;40.33;27.20;;;;;;;19.10;79.30;100147.45;1763310;81;21295;-69
2021/10/23 01:13:28;;;;;;;44.77;27.90;;;;;;;19.08;79.32;100151.36;1763340;81;21680;-69
2021/10/23 01:15:55;;;;;;;39.47;26.03;;;;;;;19.04;79.43;100161.61;1761964;81;21358;-67
2021/10/23 01:18:22;;;;;;;41.23;27.07;;;;;;;18.68;82.93;100154.42;1763714;81;21245;-69
2021/10/23 01:20:49;;;;;;;43.43;27.27;;;;;;;18.63;83.04;100142.44;1762672;81;22096;-68
2021/10/23 01:23:16;;;;;;;39.17;25.10;;;;;;;18.59;83.31;100139.99;1753634;81;21157;-69
2021/10/23 01:25:42;;;;;;;39.17;27.07;;;;;;;18.53;84.55;100142.28;1761960;81;21294;-69
2021/10/23 01:28:09;;;;;;;45.33;26.03;;;;;;;18.69;82.82;100142.81;1762586;81;21286;-69
2021/10/23 01:30:35;;;;;;;43.30;25.20;;;;;;;18.78;79.76;100140.59;1762657;81;21446;-68
2021/10/23 01:33:01;;;;;;;33.97;23.03;;;;;;;18.97;77.19;100137.19;1763737;81;21219;-67
2021/10/23 01:35:28;;;;;;;35.57;25.40;;;;;;;18.95;75.78;100137.97;1764149;81;21131;-67
2021/10/23 01:37:55;;;;;;;38.30;26.27;;;;;;;18.90;76.23;100131.27;1763020;81;21108;-68
2021/10/23 01:40:27;;;;;;;41.40;26.37;;;;;;;19.02;74.52;100129.89;1751566;81;21118;-68
2021/10/23 01:42:55;;;;;;;34.80;22.87;;;;;;;18.60;78.89;100126.27;1711424;83;21710;-67
2021/10/23 01:45:21;;;;;;;34.47;23.93;;;;;;;18.27;83.63;100131.80;1763841;81;21282;-68
2021/10/23 01:47:48;;;;;;;32.30;23.07;;;;;;;18.42;82.79;100139.19;1750771;81;21153;-69
2021/10/23 01:50:17;;;;;;;36.30;24.30;;;;;;;18.38;84.05;100137.53;1745240;81;22227;-68
2021/10/23 01:52:45;;;;;;;33.93;23.03;;;;;;;18.50;82.99;100133.52;1762760;81;21345;-68
2021/10/23 01:55:12;;;;;;;34.27;21.73;;;;;;;18.70;80.71;100127.27;1755242;81;21316;-69
2021/10/23 01:57:40;;;;;;;39.13;25.47;;;;;;;18.48;81.53;100125.02;1750733;81;21971;-68
2021/10/23 02:00:08;;;;;;;38.60;24.87;;;;;;;18.38;84.50;100119.59;1762583;81;21369;-69
2021/10/23 02:02:38;;;;;;;36.75;25.23;;;;;;;18.39;84.05;100121.98;1763073;81;21337;-68
2021/10/23 02:05:06;;;;;;;41.20;27.57;;;;;;;18.45;82.95;100114.96;1770696;80;21024;-69
2021/10/23 02:07:33;;;;;;;38.73;25.83;;;;;;;18.38;84.38;100116.95;1765090;80;21238;-68
2021/10/23 02:10:03;;;;;;;38.97;24.67;;;;;;;18.46;85.18;100113.91;1775813;80;21069;-69
2021/10/23 02:12:30;;;;;;;37.40;25.10;;;;;;;18.60;84.16;100113.06;1776562;80;21155;-68
2021/10/23 02:14:56;;;;;;;36.23;24.70;;;;;;;18.52;84.78;100117.42;1776327;80;21233;-68
2021/10/23 02:17:23;;;;;;;40.40;24.17;;;;;;;18.47;84.79;100118.94;1776511;80;21219;-68
2021/10/23 02:19:50;;;;;;;35.03;23.33;;;;;;;18.45;85.29;100120.23;1771082;80;21299;-69
2021/10/23 02:22:17;;;;;;;30.40;22.30;;;;;;;18.50;85.64;100122.95;1769408;80;21254;-68
2021/10/23 02:24:43;;;;;;;34.20;23.83;;;;;;;18.61;84.24;100119.97;1762084;79;21306;-68
2021/10/23 02:27:10;;;;;;;34.30;22.03;;;;;;;18.51;84.86;100115.31;1776389;80;21461;-68
2021/10/23 02:29:38;;;;;;;34.57;22.63;;;;;;;18.32;87.56;100123.95;1775737;80;21753;-68
2021/10/23 02:32:06;;;;;;;34.57;21.60;;;;;;;18.34;87.39;100123.73;1775587;80;21245;-68
2021/10/23 02:34:33;;;;;;;32.03;22.00;;;;;;;18.37;86.89;100127.20;1775760;80;21194;-68
2021/10/23 02:37:00;;;;;;;33.63;23.10;;;;;;;18.44;85.66;100123.90;1775782;80;21381;-68
2021/10/23 02:39:28;;;;;;;31.77;22.70;;;;;;;18.31;86.72;100122.89;1775640;79;21623;-69
2021/10/23 02:41:55;;;;;;;36.17;23.30;;;;;;;18.20;87.77;100125.86;1764607;80;21297;-68
2021/10/23 02:44:22;;;;;;;32.97;23.07;;;;;;;18.07;88.19;100121.68;1775938;80;21216;-68
2021/10/23 02:46:48;;;;;;;34.13;22.87;;;;;;;18.16;88.14;100126.05;1774251;80;22348;-68
2021/10/23 02:49:17;;;;;;;33.60;22.37;;;;;;;18.14;88.24;100124.95;1747932;80;21102;-67
2021/10/23 02:51:45;;;;;;;31.07;21.93;;;;;;;18.24;87.02;100123.83;1775403;80;21226;-68
2021/10/23 02:54:12;;;;;;;33.23;22.13;;;;;;;18.28;86.09;100138.66;1775951;80;21250;-68
2021/10/23 02:56:40;;;;;;;29.50;20.97;;;;;;;18.03;88.87;100140.30;1775225;80;21339;-69
2021/10/23 02:59:07;;;;;;;36.10;21.17;;;;;;;17.92;91.50;100137.22;1775603;80;21360;-69
2021/10/23 03:01:33;;;;;;;33.90;22.73;;;;;;;18.11;91.26;100129.92;1736821;80;21278;-67
2021/10/23 03:04:00;;;;;;;33.43;22.60;;;;;;;18.39;88.50;100129.89;1708007;82;21230;-67
2021/10/23 03:06:26;;;;;;;30.43;22.10;;;;;;;18.62;86.94;100131.60;1698020;82;21095;-67
2021/10/23 03:08:53;;;;;;;33.07;21.67;;;;;;;18.52;89.22;100127.98;1707598;83;21801;-69
2021/10/23 03:11:21;;;;;;;35.87;22.27;;;;;;;18.51;91.59;100127.19;1707742;83;21307;-69
2021/10/23 03:13:47;;;;;;;33.07;21.90;;;;;;;18.47;92.96;100126.06;1706609;83;21179;-67
2021/10/23 03:16:15;;;;;;;30.57;22.60;;;;;;;18.36;95.32;100130.88;1708014;82;21610;-68
2021/10/23 03:18:42;;;;;;;31.73;22.50;;;;;;;18.28;97.09;100128.63;1708491;83;21261;-70
2021/10/23 03:21:09;;;;;;;33.57;22.63;;;;;;;18.35;96.88;100131.41;1696892;83;21238;-70
2021/10/23 03:23:35;;;;;;;36.57;22.53;;;;;;;18.70;93.14;100122.48;1697389;83;21767;-70
2021/10/23 03:26:03;;;;;;;28.97;21.03;;;;;;;18.68;92.62;100121.42;1708106;83;21458;-70
2021/10/23 03:28:31;;;;;;;33.37;22.27;;;;;;;18.64;93.91;100115.02;1707674;83;21240;-70
2021/10/23 03:30:58;;;;;;;36.77;24.70;;;;;;;18.54;96.76;100113.52;1708067;82;21709;-70
2021/10/23 03:33:25;;;;;;;33.67;21.77;;;;;;;18.61;95.68;100112.84;1707332;83;21271;-70
2021/10/23 03:35:53;;;;;;;28.43;21.47;;;;;;;18.68;94.33;100113.50;1744363;81;21361;-67
2021/10/23 03:38:19;;;;;;;35.73;23.50;;;;;;;18.81;93.95;100110.28;1744616;80;21823;-70
2021/10/23 03:40:46;;;;;;;34.80;23.83;;;;;;;18.80;93.56;100112.13;1733527;80;21283;-70
2021/10/23 03:43:12;;;;;;;32.90;22.70;;;;;;;18.79;94.08;100110.53;1744962;80;21763;-70
2021/10/23 03:45:39;;;;;;;31.70;22.53;;;;;;;19.01;92.49;100115.86;1743455;80;21244;-68
2021/10/23 03:48:07;;;;;;;35.57;22.60;;;;;;;18.93;93.43;100116.27;1733103;80;21804;-69
2021/10/23 03:50:34;;;;;;;34.60;22.73;;;;;;;19.05;91.53;100111.69;1732817;82;22584;-69
2021/10/23 03:53:00;;;;;;;31.33;21.70;;;;;;;18.98;91.46;100117.69;1744714;80;21232;-68
2021/10/23 03:55:29;;;;;;;31.70;22.63;;;;;;;19.16;88.97;100123.20;1743891;80;21174;-69
2021/10/23 03:57:55;;;;;;;30.77;22.47;;;;;;;19.24;86.33;100109.58;1744541;80;21754;-69
2021/10/23 04:00:23;;;;;;;29.93;22.27;;;;;;;19.43;83.39;100100.34;1744935;80;21291;-68
2021/10/23 04:02:50;;;;;;;34.87;24.83;;;;;;;19.42;83.85;100097.92;1750585;81;21614;-68
2021/10/23 04:05:16;;;;;;;30.17;22.83;;;;;;;19.13;86.51;100101.23;1751351;80;21735;-69
2021/10/23 04:07:43;;;;;;;33.23;22.10;;;;;;;18.97;88.75;100101.53;1738964;80;21206;-67
2021/10/23 04:10:10;;;;;;;33.63;22.77;;;;;;;19.04;88.24;100102.17;1750785;80;21400;-69
2021/10/23 04:12:39;;;;;;;32.47;22.57;;;;;;;19.02;87.93;100103.47;1750825;80;21328;-69
2021/10/23 04:15:06;;;;;;;33.50;23.60;;;;;;;19.04;87.39;100107.45;1750914;80;21087;-68
2021/10/23 04:17:34;;;;;;;39.33;25.80;;;;;;;19.24;85.44;100110.89;1751268;80;21230;-68
2021/10/23 04:20:00;;;;;;;39.93;25.63;;;;;;;19.39;82.79;100115.06;1747828;80;21184;-68
2021/10/23 04:22:27;;;;;;;35.37;22.57;;;;;;;19.43;81.52;100112.73;1710223;81;21329;-69
2021/10/23 04:24:53;;;;;;;31.30;21.97;;;;;;;19.32;81.60;100118.92;1742493;79;21232;-68
2021/10/23 04:27:20;;;;;;;34.73;23.23;;;;;;;19.32;81.60;100118.92;1753907;81;21765;-68
2021/10/23 04:29:46;;;;;;;30.43;23.93;;;;;;;19.31;81.49;100118.13;1752092;79;21188;-70
2021/10/23 04:32:13;;;;;;;32.13;23.53;;;;;;;19.21;83.28;100123.30;1751612;80;21304;-70
2021/10/23 04:34:42;;;;;;;30.63;21.20;;;;;;;19.35;82.42;100123.73;1753824;79;21569;-70
2021/10/23 04:37:08;;;;;;;34.80;22.93;;;;;;;19.35;82.42;100123.73;1753597;80;21400;-69
2021/10/23 04:39:36;;;;;;;28.70;22.27;;;;;;;19.48;81.50;100124.72;1751665;79;21255;-69
2021/10/23 04:42:04;;;;;;;34.50;24.53;;;;;;;19.99;80.29;100116.08;1743381;80;21290;-69
2021/10/23 04:44:30;;;;;;;30.70;22.73;;;;;;;19.99;80.29;100116.08;1753022;81;21429;-68
2021/10/23 04:46:57;;;;;;;32.33;21.53;;;;;;;20.11;77.41;100123.34;1750759;80;21516;-67
2021/10/23 04:49:24;;;;;;;28.53;21.00;;;;;;;20.06;77.06;100127.27;1732494;80;22078;-68
2021/10/23 04:51:51;;;;;;;29.73;20.67;;;;;;;19.79;77.08;100120.62;1752588;80;21691;-69
2021/10/23 04:54:18;;;;;;;29.40;22.00;;;;;;;19.79;77.08;100120.62;1752699;79;22014;-69
2021/10/23 04:56:44;;;;;;;34.53;22.13;;;;;;;19.89;76.23;100129.21;1753641;80;21691;-66
2021/10/23 04:59:11;;;;;;;29.43;21.00;;;;;;;19.89;76.23;100129.21;1753327;80;21672;-66
2021/10/23 05:01:37;;;;;;;27.60;20.17;;;;;;;19.82;76.73;100125.95;1755572;80;22224;-67
2021/10/23 05:04:04;;;;;;;32.57;23.90;;;;;;;20.09;73.22;100135.24;1758000;81;21793;-68
2021/10/23 05:06:31;;;;;;;29.00;21.63;;;;;;;19.87;75.77;100137.91;1747005;81;21789;-67
2021/10/23 05:08:58;;;;;;;35.13;21.87;;;;;;;20.00;74.90;100140.19;1758569;80;21801;-67
2021/10/23 05:11:24;;;;;;;30.60;21.93;;;;;;;20.21;72.35;100135.09;1758863;80;21675;-67
2021/10/23 05:13:51;;;;;;;30.97;21.80;;;;;;;20.21;72.35;100135.09;1758567;80;21643;-69
2021/10/23 05:16:17;;;;;;;28.23;22.83;;;;;;;20.40;70.58;100145.61;1758437;80;21572;-69
2021/10/23 05:18:49;;;;;;;30.37;21.30;;;;;;;20.67;67.45;100144.81;1758461;80;21538;-66
2021/10/23 05:21:19;;;;;;;32.23;22.00;;;;;;;20.55;67.48;100138.36;1758831;80;21672;-65
2021/10/23 05:23:46;;;;;;;30.48;21.42;;;;;;;20.37;68.71;100142.13;1747725;81;21704;-68
2021/10/23 05:26:14;;;;;;;33.20;23.30;;;;;;;20.43;66.59;100149.08;1751109;80;21494;-69
2021/10/23 05:28:41;;;;;;;28.03;22.53;;;;;;;20.36;68.05;100145.84;1758632;80;21777;-68
2021/10/23 05:31:08;;;;;;;26.17;20.60;;;;;;;20.45;67.80;100146.17;1753143;80;21698;-68
2021/10/23 05:33:34;;;;;;;28.47;21.33;;;;;;;20.59;65.38;100145.55;1748339;80;21814;-67
2021/10/23 05:36:01;;;;;;;30.13;20.83;;;;;;;20.62;64.21;100145.05;1758425;80;21722;-69
2021/10/23 05:38:28;;;;;;;32.80;22.27;;;;;;;20.67;63.56;100152.76;1753017;81;21604;-67
2021/10/23 05:40:54;;;;;;;30.07;22.43;;;;;;;20.42;64.41;100146.17;1712978;81;21696;-66
2021/10/23 05:43:21;;;;;;;29.80;23.10;;;;;;;20.31;65.57;100151.88;1738941;82;21686;-67
2021/10/23 05:45:48;;;;;;;32.33;23.33;;;;;;;20.28;66.48;100151.58;1745398;80;21696;-66
2021/10/23 05:48:15;;;;;;;33.07;23.20;;;;;;;20.39;65.42;100158.05;1727219;80;22220;-68
2021/10/23 05:50:42;;;;;;;30.63;23.10;;;;;;;20.52;64.23;100164.81;1733480;80;22274;-67
2021/10/23 05:53:09;;;;;;;29.30;23.00;;;;;;;20.42;65.04;100171.32;1745800;80;21728;-66
2021/10/23 05:55:36;;;;;;;32.07;22.30;;;;;;;20.31;66.84;100168.30;1745220;80;21695;-66
2021/10/23 05:58:04;;;;;;;33.83;24.20;;;;;;;20.58;64.71;100165.14;1745471;82;21687;-65
2021/10/23 06:00:36;;;;;;;33.37;24.90;;;;;;;20.70;63.03;100164.18;1744066;80;21723;-69
2021/10/23 06:03:04;;;;;;;32.87;23.83;;;;;;;20.62;63.13;100167.56;1732028;81;21753;-66
2021/10/23 06:05:32;;;;;;;36.13;26.10;;;;;;;20.52;63.74;100167.45;1735585;80;21620;-68
2021/10/23 06:07:58;;;;;;;32.93;24.00;;;;;;;20.59;63.49;100169.37;1738151;80;21607;-66
2021/10/23 06:10:27;;;;;;;36.97;26.57;;;;;;;20.69;62.34;100158.62;1743513;80;21577;-67
2021/10/23 06:12:53;;;;;;;34.00;24.50;;;;;;;20.70;62.29;100149.08;1744442;81;21750;-67
2021/10/23 06:15:21;;;;;;;39.20;26.63;;;;;;;21.03;60.38;100154.64;1742424;81;21649;-70
2021/10/23 06:17:50;;;;;;;36.63;25.07;;;;;;;20.78;61.36;100162.39;1744162;80;21663;-73
2021/10/23 06:20:18;;;;;;;38.57;26.20;;;;;;;20.92;60.88;100166.22;1743641;81;21586;-70
2021/10/23 06:22:53;;;;;;;36.47;25.73;;;;;;;20.92;60.88;100166.22;1730125;80;22198;-69
2021/10/23 06:25:21;;;;;;;33.70;24.50;;;;;;;21.03;60.19;100163.92;1744985;80;21573;-72
2021/10/23 06:27:48;;;;;;;31.47;22.17;;;;;;;21.08;59.31;100159.97;1744547;82;21633;-69
2021/10/23 06:30:16;;;;;;;32.57;24.30;;;;;;;21.22;59.23;100167.49;1743235;80;23188;-69
2021/10/23 06:32:50;;;;;;;29.23;21.80;;;;;;;21.18;58.93;100161.11;1744762;82;21869;-72
2021/10/23 06:35:17;;;;;;;30.00;21.00;;;;;;;21.01;60.53;100169.98;1745210;80;22136;-70
2021/10/23 06:37:45;;;;;;;27.10;21.90;;;;;;;21.09;60.12;100175.34;1744482;82;23040;-68
2021/10/23 06:40:12;;;;;;;31.70;23.23;;;;;;;21.32;58.74;100174.17;1740803;80;21636;-70
2021/10/23 06:42:40;;;;;;;31.70;22.97;;;;;;;21.35;58.86;100177.66;1740806;82;21439;-69
2021/10/23 06:45:10;;;;;;;30.97;22.17;;;;;;;21.44;58.27;100182.78;1744782;82;21580;-69
2021/10/23 06:47:37;;;;;;;28.00;21.93;;;;;;;21.61;57.25;100183.38;1736720;80;20976;-69
2021/10/23 06:50:08;;;;;;;26.30;20.53;;;;;;;21.73;56.66;100179.73;1727093;80;21139;-70
2021/10/23 06:52:35;;;;;;;28.93;21.90;;;;;;;21.75;56.05;100185.05;1742402;80;21131;-68
2021/10/23 06:55:02;;;;;;;26.37;20.10;;;;;;;21.09;59.65;100188.06;1743921;81;20973;-70
2021/10/23 06:57:28;;;;;;;34.73;23.50;;;;;;;21.68;57.45;100191.12;1740095;81;21559;-74
2021/10/23 06:59:55;;;;;;;35.20;24.13;;;;;;;21.89;56.05;100184.03;1739572;81;21720;-69
2021/10/23 07:02:23;;;;;;;31.03;22.40;;;;;;;22.37;54.02;100186.07;1741378;80;21044;-69
2021/10/23 07:04:51;;;;;;;32.27;22.07;;;;;;;22.43;53.77;100194.33;1742745;81;21060;-70
2021/10/23 07:07:17;;;;;;;31.97;22.60;;;;;;;22.52;53.49;100196.72;1742352;82;21023;-70
2021/10/23 07:09:44;;;;;;;35.40;22.90;;;;;;;22.62;52.41;100193.30;1736071;82;21071;-69
2021/10/23 07:12:12;;;;;;;31.83;22.70;;;;;;;22.41;52.20;100187.67;1735373;82;21022;-69
2021/10/23 07:14:39;;;;;;;30.43;22.30;;;;;;;22.57;51.89;100199.38;1741307;80;20988;-71
2021/10/23 07:17:07;;;;;;;36.20;26.80;;;;;;;22.79;51.41;100195.69;1732763;81;21016;-70
2021/10/23 07:19:33;;;;;;;31.90;24.67;;;;;;;23.27;50.03;100192.23;1735577;80;21023;-68
2021/10/23 07:22:01;;;;;;;26.87;21.03;;;;;;;23.42;49.68;100190.88;1719688;81;21106;-68
2021/10/23 07:24:27;;;;;;;27.87;20.73;;;;;;;23.53;49.27;100183.14;1738120;81;21138;-69
2021/10/23 07:26:54;;;;;;;28.97;20.83;;;;;;;23.78;48.47;100177.48;1738105;80;20905;-68
2021/10/23 07:29:21;;;;;;;25.73;19.30;;;;;;;23.96;47.83;100192.84;1742643;82;21109;-69
2021/10/23 07:31:50;;;;;;;25.60;19.63;;;;;;;24.16;47.06;100189.81;1690783;83;22221;-68
2021/10/23 07:34:18;;;;;;;29.47;21.10;;;;;;;24.32;46.45;100202.00;1697182;83;21527;-67
2021/10/23 07:36:44;;;;;;;27.17;21.57;;;;;;;24.63;45.69;100199.95;1704527;83;21552;-68
2021/10/23 07:39:11;;;;;;;27.57;19.10;;;;;;;24.69;45.10;100185.50;1692458;83;21575;-69
2021/10/23 07:41:38;;;;;;;24.53;19.83;;;;;;;24.97;44.09;100178.62;1703494;82;21182;-68
2021/10/23 07:44:12;;;;;;;26.43;20.97;;;;;;;24.85;44.22;100178.70;1697974;83;21063;-68
2021/10/23 07:46:38;;;;;;;23.90;19.27;;;;;;;24.63;44.87;100180.50;1693338;83;21040;-67
2021/10/23 07:49:07;;;;;;;23.07;18.50;;;;;;;24.58;44.92;100176.52;1682844;83;21117;-67
2021/10/23 07:51:39;;;;;;;23.37;18.53;;;;;;;24.42;45.16;100173.97;1740402;80;21050;-67
2021/10/23 07:54:09;;;;;;;29.10;22.07;;;;;;;24.51;44.98;100182.98;1743630;80;21150;-68
2021/10/23 07:56:40;;;;;;;24.17;18.70;;;;;;;24.78;44.77;100173.72;1742668;81;20996;-69
2021/10/23 07:59:08;;;;;;;22.53;16.50;;;;;;;24.79;44.40;100168.64;1741708;80;22188;-68
2021/10/23 08:01:34;;;;;;;25.30;19.00;;;;;;;24.90;44.19;100176.81;1743375;80;21153;-68
2021/10/23 08:04:04;;;;;;;22.20;17.70;;;;;;;24.85;44.33;100173.38;1757231;80;21002;-68
2021/10/23 08:06:30;;;;;;;25.23;19.83;;;;;;;24.96;44.05;100177.03;1747451;81;21209;-67
2021/10/23 08:08:56;;;;;;;25.73;19.87;;;;;;;24.90;44.27;100164.02;1758665;81;21006;-70
2021/10/23 08:11:25;;;;;;;23.97;17.90;;;;;;;24.94;44.18;100169.84;1748117;81;20956;-70
2021/10/23 08:13:51;;;;;;;26.33;18.73;;;;;;;25.04;44.27;100177.48;1758855;80;21078;-69
2021/10/23 08:16:19;;;;;;;21.13;17.50;;;;;;;24.89;44.24;100177.07;1758602;81;20994;-69
2021/10/23 08:18:46;;;;;;;28.63;20.47;;;;;;;25.02;43.75;100184.98;1757966;80;21134;-70
2021/10/23 08:21:12;;;;;;;28.80;21.67;;;;;;;24.75;43.86;100195.06;1757991;81;21085;-69
2021/10/23 08:23:38;;;;;;;25.43;20.77;;;;;;;24.75;44.06;100203.05;1758756;80;21038;-69
2021/10/23 08:26:05;;;;;;;25.17;20.50;;;;;;;24.86;43.89;100202.98;1743324;80;20987;-69
2021/10/23 08:28:33;;;;;;;26.10;21.33;;;;;;;24.94;43.69;100209.84;1758708;81;21094;-69
2021/10/23 08:31:00;;;;;;;24.00;18.90;;;;;;;24.73;43.95;100199.06;1758629;80;21101;-70
2021/10/23 08:33:26;;;;;;;27.60;22.70;;;;;;;24.83;44.01;100200.33;1758053;80;21494;-70
2021/10/23 08:35:55;;;;;;;28.40;19.67;;;;;;;24.89;44.18;100208.55;1748489;81;20951;-69
2021/10/23 08:38:23;;;;;;;36.53;28.30;;;;;;;24.90;44.01;100200.80;1758870;80;20995;-68
2021/10/23 08:40:53;;;;;;;35.83;26.80;;;;;;;25.08;43.82;100204.66;1747344;81;21240;-68
2021/10/23 08:43:20;;;;;;;32.07;24.93;;;;;;;24.95;44.07;100186.09;1758058;80;21146;-69
2021/10/23 08:45:48;;;;;;;31.10;23.27;;;;;;;25.24;43.67;100201.34;1745407;80;22248;-68
2021/10/23 08:48:15;;;;;;;23.30;19.73;;;;;;;25.45;43.60;100199.24;1758518;80;20983;-66
2021/10/23 08:50:42;;;;;;;25.33;20.03;;;;;;;25.48;43.11;100198.14;1745077;80;21090;-68
2021/10/23 08:53:09;;;;;;;23.33;18.07;;;;;;;25.77;42.35;100199.97;1745686;81;22318;-70
2021/10/23 08:55:37;;;;;;;25.67;20.23;;;;;;;25.96;41.83;100192.02;1758844;80;21459;-70
2021/10/23 08:58:10;;;;;;;34.13;24.70;;;;;;;26.15;41.18;100200.84;1759060;81;20928;-67
2021/10/23 09:00:37;;;;;;;;;;;;;;;26.11;40.97;100202.50;1729308;80;21536;-68
2021/10/23 09:03:05;;;;;;;28.63;21.00;;;;;;;26.22;40.85;100206.37;1753046;80;20278;-68
2021/10/23 09:05:33;;;;;;;27.60;21.53;;;;;;;25.83;41.52;100202.84;1741635;81;21044;-67
2021/10/23 09:08:00;;;;;;;26.67;20.13;;;;;;;25.61;42.00;100201.20;1733771;80;21307;-68
2021/10/23 09:10:30;;;;;;;24.57;20.53;;;;;;;26.02;41.23;100201.53;1742610;80;20920;-68
2021/10/23 09:13:05;;;;;;;29.23;23.17;;;;;;;25.73;41.49;100203.74;1741926;80;21043;-69
2021/10/23 09:15:40;;;;;;;24.67;19.83;;;;;;;25.61;41.95;100200.69;1743567;80;21078;-67
2021/10/23 09:18:08;;;;;;;27.20;21.03;;;;;;;25.69;41.71;100191.25;1743095;80;21007;-68
2021/10/23 09:20:41;;;;;;;32.03;23.40;;;;;;;25.58;42.05;100187.11;1743332;81;20940;-69
2021/10/23 09:23:17;;;;;;;29.02;21.55;;;;;;;25.78;41.93;100198.91;1734498;80;22030;-69
2021/10/23 09:25:45;;;;;;;27.93;20.67;;;;;;;26.10;41.33;100197.42;1742411;80;20992;-68
2021/10/23 09:28:16;;;;;;;21.73;18.17;;;;;;;26.14;41.05;100195.80;1742835;80;21055;-68
2021/10/23 09:30:47;;;;;;;21.82;17.87;;;;;;;26.09;40.70;100187.83;1743386;80;21027;-68
2021/10/23 09:33:23;;;;;;;21.67;18.03;;;;;;;26.11;40.52;100181.67;1744069;80;21785;-68
2021/10/23 09:35:52;;;;;;;29.10;23.10;;;;;;;26.27;40.23;100179.58;1742538;81;21541;-69
2021/10/23 09:38:26;;;;;;;33.57;25.37;;;;;;;26.08;40.37;100186.25;1742314;80;21020;-71
2021/10/23 09:40:56;;;;;;;28.63;23.27;;;;;;;26.18;40.30;100183.45;1742632;81;21050;-67
2021/10/23 09:43:28;;;;;;;25.23;19.70;;;;;;;26.27;40.19;100179.58;1745334;80;21565;-68
2021/10/23 09:46:02;;;;;;;33.67;24.17;;;;;;;26.39;40.06;100171.36;1732210;80;21878;-68
2021/10/23 09:48:40;;;;;;;28.27;21.80;;;;;;;26.70;39.28;100169.58;1734561;80;21333;-67
2021/10/23 09:51:26;;;;;;;20.47;18.27;;;;;;;26.80;38.79;100172.09;1735341;80;20952;-68
2021/10/23 09:54:01;;;;;;;19.53;15.67;;;;;;;26.79;38.66;100170.51;1739370;80;21536;-67
2021/10/23 09:56:33;;;;;;;19.43;16.87;;;;;;;26.68;38.80;100174.44;1739706;80;20960;-68
2021/10/23 09:59:14;;;;;;;20.53;17.30;;;;;;;26.82;38.54;100165.09;1745715;80;21091;-66
2021/10/23 10:01:43;;;;;;;24.23;19.07;;;;;;;26.79;38.44;100175.07;1742134;81;21356;-67
2021/10/23 10:04:13;;;;;;;24.93;19.27;;;;;;;26.61;38.89;100176.14;1739864;81;21024;-67
2021/10/23 10:06:47;;;;;;;21.67;18.23;;;;;;;26.74;38.66;100177.80;1725047;82;21545;-67
2021/10/23 10:09:23;;;;;;;21.37;17.33;;;;;;;26.72;38.65;100170.09;1735592;81;20857;-68
2021/10/23 10:11:48;;;;;;;31.33;22.33;;;;;;;26.63;38.52;100168.64;1733711;82;21241;-67
2021/10/23 10:14:19;;;;;;;36.20;27.43;;;;;;;26.67;38.37;100169.63;1731144;80;22340;-67
2021/10/23 10:16:48;;;;;;;29.85;23.00;;;;;;;26.80;38.44;100165.41;1736423;81;21442;-68
2021/10/23 10:19:19;;;;;;;24.07;18.40;;;;;;;26.85;38.00;100158.63;1737199;81;21897;-67
2021/10/23 10:21:46;;;;;;;22.53;18.57;;;;;;;26.74;37.96;100155.87;1737802;80;20999;-68
2021/10/23 10:24:23;;;;;;;24.80;19.93;;;;;;;26.82;37.89;100147.20;1726897;81;21552;-67
2021/10/23 10:27:04;;;;;;;43.50;33.33;;;;;;;26.89;37.84;100150.80;1736725;81;20968;-69
2021/10/23 10:29:50;;;;;;;50.95;37.78;;;;;;;27.09;37.73;100146.99;1736314;80;21036;-68
2021/10/23 10:32:25;;;;;;;34.77;25.40;;;;;;;27.20;37.64;100146.27;1736742;80;21493;-68
2021/10/23 10:38:12;;;;;;;22.60;18.67;;;;;;;27.28;36.85;100161.11;1734990;82;21817;-69
2021/10/23 10:40:57;;;;;;;23.57;17.57;;;;;;;27.20;36.92;100165.00;1725975;81;21012;-69
2021/10/23 10:43:15;;;;;;;30.00;21.67;;;;;;;27.24;36.56;100170.00;1737602;81;20997;-70
2021/10/23 10:45:48;;;;;;;40.10;26.60;;;;;;;27.35;36.55;100160.69;1736524;81;21567;-69
2021/10/23 10:48:34;;;;;;;38.03;29.20;;;;;;;27.04;36.90;100164.45;1719045;80;21856;-68
2021/10/23 10:51:13;;;;;;;38.20;26.73;;;;;;;27.13;37.03;100166.75;1736913;81;21164;-70
2021/10/23 10:53:53;;;;;;;30.33;23.50;;;;;;;27.03;36.97;100165.55;1735208;81;21277;-69
2021/10/23 10:56:21;;;;;;;32.08;25.88;;;;;;;27.13;36.65;100166.75;1734135;82;20999;-67
2021/10/23 10:59:00;;;;;;;27.53;20.70;;;;;;;27.27;36.65;100168.87;1702582;82;20987;-70
2021/10/23 11:01:25;;;;;;;27.93;21.33;;;;;;;27.27;36.64;100170.75;1734920;81;20983;-67
2021/10/23 11:04:07;;;;;;;31.23;23.33;;;;;;;27.22;36.57;100167.64;1745236;80;20955;-69
2021/10/23 11:06:42;;;;;;;38.28;27.82;;;;;;;27.14;36.73;100162.97;1747168;80;20943;-68
2021/10/23 11:09:15;;;;;;;43.10;32.47;;;;;;;27.24;36.58;100167.33;1758614;80;21050;-68
2021/10/23 11:11:50;;;;;;;45.43;34.87;;;;;;;27.18;36.54;100171.20;1757575;81;21069;-67
2021/10/23 11:14:34;;;;;;;48.93;34.93;;;;;;;27.24;36.29;100161.45;1758402;80;20907;-68
2021/10/23 11:17:03;;;;;;;53.10;37.25;;;;;;;27.22;36.38;100158.81;1748633;81;21414;-68
2021/10/23 11:19:40;;;;;;;61.77;41.30;;;;;;;26.38;37.18;100157.75;1722455;81;21513;-68